Terminal Aerodrome Forecast
Issued by NWS

Home | Current Version | Previous Version | Text Only | Print | Product List | Glossary On
Versions: 1 2 3 4 5 6 7 8 9 10 11 12 13 14 15 16 17 18
620
FTUS43 KGRR 222114 AAB
TAFMKG
TAF AMD
KMKG 222114Z 2221/2318 31012KT P6SM -SHRA OVC035
      TEMPO 2221/2301 3SM SHRA BR OVC025
     FM230100 33008KT 3SM -SHRA BR OVC009
     FM231300 01003KT 2SM BR OVC007
     FM231700 30005KT 5SM BR OVC015=

USA.gov is the U.S. government's official web portal to all federal, state and local government web resources and services.